createdAt,value
2019-04-03T00:01:14.950Z,2.17
2019-04-03T00:03:44.679Z,2.03
2019-04-03T00:06:14.907Z,1.93
2019-04-03T00:08:45.823Z,2.00
2019-04-03T00:11:16.524Z,1.90
2019-04-03T00:13:46.432Z,2.17
2019-04-03T00:16:16.730Z,2.10
2019-04-03T00:18:48.020Z,2.10
2019-04-03T00:21:19.166Z,1.80
2019-04-03T00:23:52.183Z,2.03
2019-04-03T00:26:22.600Z,1.77
2019-04-03T00:28:54.078Z,2.20
2019-04-03T00:31:23.977Z,2.00
2019-04-03T00:33:53.933Z,1.90
2019-04-03T00:36:23.881Z,1.87
2019-04-03T00:38:54.318Z,1.80
2019-04-03T00:41:27.258Z,1.73
2019-04-03T00:43:58.046Z,2.10
2019-04-03T00:46:27.885Z,2.07
2019-04-03T00:49:00.500Z,2.00
2019-04-03T00:51:31.496Z,1.77
2019-04-03T00:54:01.574Z,2.43
2019-04-03T00:56:31.571Z,2.03
2019-04-03T00:59:01.712Z,1.87
2019-04-03T01:01:34.758Z,1.97
2019-04-03T01:04:04.522Z,1.77
2019-04-03T01:06:35.690Z,2.03
2019-04-03T01:09:07.530Z,1.90
2019-04-03T01:11:38.686Z,1.60
2019-04-03T01:14:11.719Z,1.87
2019-04-03T01:16:42.110Z,1.90
2019-04-03T01:19:12.681Z,2.10
2019-04-03T01:21:42.432Z,1.90
2019-04-03T01:24:12.866Z,2.10
2019-04-03T01:26:43.268Z,1.97
2019-04-03T01:29:13.828Z,2.30
2019-04-03T01:31:44.710Z,1.97
2019-04-03T01:34:18.105Z,2.33
2019-04-03T01:36:49.470Z,2.43
2019-04-03T01:39:21.059Z,2.13
2019-04-03T01:41:52.097Z,2.20
2019-04-03T01:44:24.114Z,2.03
2019-04-03T01:46:54.090Z,2.47
2019-04-03T01:49:28.142Z,2.40
2019-04-03T01:52:00.262Z,2.00
2019-04-03T01:54:29.339Z,2.10
2019-04-03T01:56:59.907Z,2.50
2019-04-03T01:59:29.756Z,2.20
2019-04-03T02:01:59.690Z,2.20
2019-04-03T02:04:30.143Z,2.17
2019-04-03T02:07:00.539Z,2.13
2019-04-03T02:09:31.159Z,2.30
2019-04-03T02:12:01.160Z,2.20
2019-04-03T02:14:31.733Z,2.60
2019-04-03T02:17:01.708Z,2.50
2019-04-03T02:19:31.869Z,2.40
2019-04-03T02:22:02.303Z,2.30
2019-04-03T02:24:33.871Z,2.53
2019-04-03T02:27:03.670Z,2.77
2019-04-03T02:29:33.804Z,2.40
2019-04-03T02:32:03.544Z,2.23
2019-04-03T02:34:35.994Z,2.20
2019-04-03T02:37:06.677Z,2.53
2019-04-03T02:39:37.964Z,2.70
2019-04-03T02:42:09.639Z,2.70
2019-04-03T02:44:39.859Z,2.10
2019-04-03T02:47:10.852Z,2.60
2019-04-03T02:49:42.669Z,2.17
2019-04-03T02:52:12.255Z,2.60
2019-04-03T02:54:42.864Z,2.37
2019-04-03T02:57:16.161Z,2.50
2019-04-03T02:59:48.527Z,2.40
2019-04-03T03:02:19.122Z,2.30
2019-04-03T03:04:49.350Z,2.70
2019-04-03T03:07:19.459Z,2.37
2019-04-03T03:09:49.419Z,2.33
2019-04-03T03:12:21.857Z,2.43
2019-04-03T03:14:52.733Z,2.73
2019-04-03T03:17:24.252Z,2.97
2019-04-03T03:19:54.773Z,2.97
2019-04-03T03:22:25.148Z,2.80
2019-04-03T03:25:00.228Z,2.67
2019-04-03T03:27:30.299Z,2.80
2019-04-03T03:30:00.378Z,2.20
2019-04-03T03:32:35.284Z,2.77
2019-04-03T03:35:12.299Z,2.83
2019-04-03T03:37:35.615Z,2.57
2019-04-03T03:40:09.090Z,2.73
2019-04-03T03:42:41.513Z,2.87
2019-04-03T03:45:13.378Z,2.73
2019-04-03T03:47:43.468Z,2.60
2019-04-03T03:50:13.546Z,3.03
2019-04-03T03:52:43.427Z,2.63
2019-04-03T03:55:13.388Z,2.93
2019-04-03T03:57:44.019Z,2.50
2019-04-03T04:00:14.522Z,2.47
2019-04-03T04:02:45.205Z,2.63
2019-04-03T04:05:19.966Z,2.47
2019-04-03T04:07:47.742Z,2.93
2019-04-03T04:10:24.020Z,2.60
2019-04-03T04:12:51.001Z,3.27
2019-04-03T04:15:21.217Z,3.10
2019-04-03T04:17:52.415Z,3.07
2019-04-03T04:20:22.236Z,3.20
2019-04-03T04:22:52.160Z,3.40
2019-04-03T04:25:22.661Z,3.37
2019-04-03T04:27:53.321Z,2.50
2019-04-03T04:30:24.404Z,2.67
2019-04-03T04:32:54.939Z,2.87
2019-04-03T04:35:26.364Z,3.10
2019-04-03T04:37:56.759Z,3.20
2019-04-03T04:40:29.027Z,2.97
2019-04-03T04:43:03.373Z,3.50
2019-04-03T04:45:33.522Z,3.23
2019-04-03T04:48:03.679Z,3.03
2019-04-03T04:50:35.096Z,3.33
2019-04-03T04:53:05.171Z,3.37
2019-04-03T04:55:35.996Z,3.40
2019-04-03T04:58:05.740Z,3.57
2019-04-03T05:00:35.808Z,3.00
2019-04-03T05:03:05.951Z,3.30
2019-04-03T05:05:35.097Z,3.10
2019-04-03T05:08:05.672Z,3.17
2019-04-03T05:10:36.912Z,3.60
2019-04-03T05:13:10.077Z,3.33
2019-04-03T05:15:40.186Z,3.20
2019-04-03T05:18:11.057Z,3.50
2019-04-03T05:20:41.081Z,2.87
2019-04-03T05:23:11.890Z,3.50
2019-04-03T05:25:41.726Z,2.87
2019-04-03T05:28:12.479Z,2.87
2019-04-03T05:30:42.484Z,3.17
2019-04-03T05:33:13.418Z,3.30
2019-04-03T05:35:45.620Z,2.90
2019-04-03T05:38:16.719Z,4.23
2019-04-03T05:40:48.714Z,3.77
2019-04-03T05:43:18.699Z,3.87
2019-04-03T05:45:49.059Z,2.80
2019-04-03T05:48:19.381Z,3.27
2019-04-03T05:50:49.936Z,3.07
2019-04-03T05:53:19.652Z,3.20
2019-04-03T05:55:50.352Z,3.77
2019-04-03T05:58:20.957Z,3.40
2019-04-03T06:01:02.616Z,3.17
2019-04-03T06:03:37.515Z,3.00
2019-04-03T06:05:57.728Z,3.33
2019-04-03T06:08:27.022Z,3.37
2019-04-03T06:10:57.283Z,2.90
2019-04-03T06:13:27.958Z,3.33
2019-04-03T06:15:57.745Z,3.17
2019-04-03T06:18:31.196Z,2.87
2019-04-03T06:21:00.037Z,3.00
2019-04-03T06:23:30.650Z,2.70
2019-04-03T06:26:02.481Z,3.43
2019-04-03T06:28:33.399Z,3.10
2019-04-03T06:31:04.222Z,3.70
2019-04-03T06:33:36.659Z,4.00
2019-04-03T06:36:06.761Z,4.00
2019-04-03T06:38:37.757Z,3.43
2019-04-03T06:41:09.089Z,2.77
2019-04-03T06:43:43.102Z,3.73
2019-04-03T06:46:13.275Z,2.70
2019-04-03T06:48:43.449Z,3.23
2019-04-03T06:51:15.656Z,2.93
2019-04-03T06:53:46.642Z,3.47
2019-04-03T06:56:18.163Z,3.93
2019-04-03T06:58:48.146Z,3.73
2019-04-03T07:01:20.192Z,3.80
2019-04-03T07:03:49.519Z,3.20
2019-04-03T07:06:19.268Z,3.63
2019-04-03T07:08:49.263Z,4.60
2019-04-03T07:11:23.602Z,2.93
2019-04-03T07:13:53.198Z,3.60
2019-04-03T07:16:23.479Z,2.60
2019-04-03T07:18:53.974Z,3.23
2019-04-03T07:21:27.019Z,3.30
2019-04-03T07:23:56.042Z,3.40
2019-04-03T07:26:25.943Z,2.93
2019-04-03T07:28:56.309Z,3.10
2019-04-03T07:31:27.491Z,3.00
2019-04-03T07:33:58.631Z,3.90
2019-04-03T07:36:29.281Z,3.20
2019-04-03T07:38:59.271Z,3.43
2019-04-03T07:41:29.887Z,3.67
2019-04-03T07:44:00.043Z,3.27
2019-04-03T07:46:29.715Z,3.37
2019-04-03T07:49:00.693Z,3.23
2019-04-03T07:51:31.445Z,2.93
2019-04-03T07:54:04.243Z,3.37
2019-04-03T07:56:36.105Z,3.60
2019-04-03T07:59:06.948Z,3.83
2019-04-03T08:01:38.802Z,3.87
2019-04-03T08:04:09.096Z,3.10
2019-04-03T08:06:39.365Z,3.40
2019-04-03T08:09:10.473Z,3.60
2019-04-03T08:11:40.288Z,3.57
2019-04-03T08:14:10.102Z,3.73
2019-04-03T08:16:42.167Z,3.93
2019-04-03T08:19:12.477Z,3.40
2019-04-03T08:21:43.238Z,3.30
2019-04-03T08:24:13.980Z,3.30
2019-04-03T08:26:43.995Z,3.17
2019-04-03T08:29:14.546Z,3.80
2019-04-03T08:31:48.359Z,3.70
2019-04-03T08:34:18.771Z,4.20
2019-04-03T08:36:48.942Z,3.77
2019-04-03T08:39:19.439Z,3.70
2019-04-03T08:41:49.707Z,3.50
2019-04-03T08:44:19.711Z,3.67
2019-04-03T08:46:50.131Z,3.90
2019-04-03T08:49:20.868Z,3.80
2019-04-03T08:51:50.815Z,3.77
2019-04-03T08:54:20.779Z,3.80
2019-04-03T08:56:50.766Z,3.67
2019-04-03T08:59:20.622Z,3.67
2019-04-03T09:01:50.738Z,3.43
2019-04-03T09:04:20.174Z,4.20
2019-04-03T09:06:51.738Z,4.27
2019-04-03T09:09:21.866Z,4.43
2019-04-03T09:11:51.959Z,3.70
2019-04-03T09:14:23.594Z,3.83
2019-04-03T09:16:55.654Z,3.53
2019-04-03T09:19:25.993Z,3.87
2019-04-03T09:21:55.778Z,3.87
2019-04-03T09:24:28.993Z,3.60
2019-04-03T09:26:57.743Z,4.20
2019-04-03T09:29:30.974Z,4.43
2019-04-03T09:32:02.045Z,4.37
2019-04-03T09:34:34.229Z,3.93
2019-04-03T09:37:05.840Z,3.40
2019-04-03T09:39:35.519Z,3.20
2019-04-03T09:42:05.516Z,4.77
2019-04-03T09:44:36.366Z,3.97
2019-04-03T09:47:06.954Z,4.23
2019-04-03T09:49:42.055Z,4.23
2019-04-03T09:52:10.743Z,3.90
2019-04-03T09:54:41.912Z,3.83
2019-04-03T09:57:12.196Z,4.27
2019-04-03T09:59:42.780Z,4.33
2019-04-03T10:02:13.150Z,3.97
2019-04-03T10:04:43.791Z,4.50
2019-04-03T10:07:14.130Z,4.57
2019-04-03T10:09:43.981Z,4.30
2019-04-03T10:12:14.887Z,3.83
2019-04-03T10:14:45.439Z,4.27
2019-04-03T10:17:15.452Z,4.20
2019-04-03T10:19:46.280Z,4.13
2019-04-03T10:22:17.435Z,4.00
2019-04-03T10:24:46.410Z,4.17
2019-04-03T10:27:16.899Z,3.83
2019-04-03T10:29:49.235Z,4.30
2019-04-03T10:32:19.233Z,4.00
2019-04-03T10:34:50.033Z,4.30
2019-04-03T10:37:20.451Z,3.90
2019-04-03T10:39:52.782Z,4.63
2019-04-03T10:42:23.714Z,4.60
2019-04-03T10:44:56.115Z,4.40
2019-04-03T10:47:39.383Z,4.33
2019-04-03T10:49:57.870Z,4.40
2019-04-03T10:52:28.463Z,4.40
2019-04-03T10:54:59.006Z,4.77
2019-04-03T10:57:29.654Z,4.50
2019-04-03T11:00:00.078Z,5.20
2019-04-03T11:02:30.043Z,4.40
2019-04-03T11:05:01.264Z,4.33
2019-04-03T11:07:31.768Z,4.70
2019-04-03T11:10:01.723Z,4.73
2019-04-03T11:12:32.470Z,4.43
2019-04-03T11:15:03.696Z,4.93
2019-04-03T11:17:34.128Z,4.90
2019-04-03T11:20:04.207Z,4.27
2019-04-03T11:22:40.354Z,4.97
2019-04-03T11:25:06.428Z,4.80
2019-04-03T11:27:45.138Z,4.97
2019-04-03T11:30:12.256Z,5.00
2019-04-03T11:32:43.139Z,5.13
2019-04-03T11:35:13.831Z,4.40
2019-04-03T11:37:43.808Z,5.30
2019-04-03T11:40:17.770Z,5.50
2019-04-03T11:42:48.703Z,4.53
2019-04-03T11:45:19.782Z,4.87
2019-04-03T11:47:49.626Z,5.20
2019-04-03T11:50:19.728Z,4.87
2019-04-03T11:52:51.395Z,5.77
2019-04-03T11:55:21.088Z,4.70
2019-04-03T11:57:50.842Z,5.00
2019-04-03T12:00:28.737Z,5.23
2019-04-03T12:02:58.920Z,4.80
2019-04-03T12:05:29.231Z,4.80
2019-04-03T12:07:59.579Z,5.87
2019-04-03T12:10:29.061Z,5.33
2019-04-03T12:13:00.663Z,5.00
2019-04-03T12:15:33.822Z,5.13
2019-04-03T12:18:03.967Z,5.40
2019-04-03T12:20:33.867Z,5.30
2019-04-03T12:23:04.010Z,6.03
2019-04-03T12:25:34.864Z,5.53
2019-04-03T12:28:07.344Z,5.67
2019-04-03T12:30:37.034Z,5.83
2019-04-03T12:33:09.497Z,5.70
2019-04-03T12:35:42.207Z,5.33
2019-04-03T12:38:14.239Z,5.97
2019-04-03T12:40:44.072Z,5.53
2019-04-03T12:43:14.546Z,5.03
2019-04-03T12:45:44.691Z,5.07
2019-04-03T12:48:17.924Z,6.63
2019-04-03T12:50:47.213Z,5.53
2019-04-03T12:53:17.316Z,5.27
2019-04-03T12:55:47.163Z,5.80
2019-04-03T12:58:17.897Z,5.43
2019-04-03T13:00:48.140Z,5.53
2019-04-03T13:03:18.228Z,5.87
2019-04-03T13:05:49.142Z,5.47
2019-04-03T13:08:21.123Z,5.87
2019-04-03T13:10:50.614Z,5.80
2019-04-03T13:13:20.895Z,5.53
2019-04-03T13:15:50.768Z,5.97
2019-04-03T13:18:20.894Z,5.40
2019-04-03T13:20:50.981Z,5.90
2019-04-03T13:23:20.755Z,5.40
2019-04-03T13:25:53.197Z,5.63
2019-04-03T13:28:22.831Z,5.57
2019-04-03T13:30:53.158Z,6.03
2019-04-03T13:33:26.021Z,5.13
2019-04-03T13:35:56.143Z,5.67
2019-04-03T13:38:27.803Z,6.60
2019-04-03T13:40:58.393Z,4.73
2019-04-03T13:43:32.071Z,5.43
2019-04-03T13:46:04.288Z,6.07
2019-04-03T13:48:33.943Z,5.47
2019-04-03T13:51:03.578Z,5.70
2019-04-03T13:53:34.177Z,5.87
2019-04-03T13:56:06.537Z,5.47
2019-04-03T13:58:35.977Z,5.20
2019-04-03T14:01:09.271Z,5.93
2019-04-03T14:03:38.461Z,5.63
2019-04-03T14:06:08.551Z,7.37
2019-04-03T14:08:38.821Z,5.57
2019-04-03T14:11:09.653Z,5.80
2019-04-03T14:13:42.554Z,6.17
2019-04-03T14:16:19.931Z,5.27
2019-04-03T14:18:43.234Z,5.90
2019-04-03T14:21:13.171Z,5.90
2019-04-03T14:23:43.278Z,5.60
2019-04-03T14:26:14.641Z,5.33
2019-04-03T14:28:45.827Z,6.10
2019-04-03T14:31:17.860Z,6.27
2019-04-03T14:33:48.515Z,5.47
2019-04-03T14:36:19.146Z,5.97
2019-04-03T14:38:49.675Z,5.80
2019-04-03T14:41:20.813Z,5.67
2019-04-03T14:43:52.043Z,6.33
2019-04-03T14:46:22.144Z,5.50
2019-04-03T14:48:52.638Z,6.77
2019-04-03T14:51:23.012Z,6.20
2019-04-03T14:53:53.554Z,5.67
2019-04-03T14:56:24.015Z,6.27
2019-04-03T14:58:57.184Z,6.00
2019-04-03T15:01:26.382Z,6.40
2019-04-03T15:04:00.064Z,6.53
2019-04-03T15:06:29.074Z,6.40
2019-04-03T15:08:58.434Z,6.37
2019-04-03T15:11:28.346Z,6.23
2019-04-03T15:13:58.782Z,6.20
2019-04-03T15:16:31.385Z,6.10
2019-04-03T15:19:02.613Z,5.57
2019-04-03T15:21:32.832Z,6.30
2019-04-03T15:24:03.306Z,6.23
2019-04-03T15:26:33.052Z,6.27
2019-04-03T15:29:03.628Z,6.63
2019-04-03T15:31:33.934Z,5.63
2019-04-03T15:34:04.130Z,6.47
2019-04-03T15:36:35.877Z,6.30
2019-04-03T15:39:11.715Z,6.37
2019-04-03T15:41:42.654Z,6.37
2019-04-03T15:44:13.980Z,6.63
2019-04-03T15:46:44.893Z,6.67
2019-04-03T15:49:15.365Z,6.00
2019-04-03T15:51:45.220Z,6.20
2019-04-03T15:54:16.696Z,6.10
2019-04-03T15:56:46.632Z,6.67
2019-04-03T15:59:16.687Z,6.47
2019-04-03T16:01:48.863Z,5.60
2019-04-03T16:04:19.418Z,6.30
2019-04-03T16:06:49.532Z,6.20
2019-04-03T16:09:20.104Z,6.20
2019-04-03T16:11:50.473Z,6.67
2019-04-03T16:14:21.070Z,7.50
2019-04-03T16:16:51.224Z,6.87
2019-04-03T16:19:21.619Z,6.57
2019-04-03T16:21:52.090Z,6.57
2019-04-03T16:24:22.607Z,6.00
2019-04-03T16:26:53.187Z,6.13
2019-04-03T16:29:25.247Z,6.70
2019-04-03T16:31:55.936Z,7.07
2019-04-03T16:34:26.389Z,5.90
2019-04-03T16:36:57.015Z,7.07
2019-04-03T16:39:31.566Z,5.87
2019-04-03T16:42:01.813Z,6.77
2019-04-03T16:44:32.432Z,6.07
2019-04-03T16:47:03.106Z,5.80
2019-04-03T16:49:33.694Z,5.87
2019-04-03T16:52:05.617Z,6.50
2019-04-03T16:54:36.420Z,6.40
2019-04-03T16:57:06.979Z,6.13
2019-04-03T16:59:40.293Z,6.20
2019-04-03T17:02:11.038Z,6.40
2019-04-03T17:04:41.799Z,5.50
2019-04-03T17:07:11.751Z,6.40
2019-04-03T17:09:41.858Z,6.23
2019-04-03T17:12:12.451Z,6.20
2019-04-03T17:14:42.199Z,5.90
2019-04-03T17:17:14.308Z,5.63
2019-04-03T17:19:44.814Z,6.63
2019-04-03T17:22:14.292Z,6.30
2019-04-03T17:24:48.625Z,6.20
2019-04-03T17:27:16.660Z,5.73
2019-04-03T17:29:48.071Z,6.30
2019-04-03T17:32:18.438Z,6.53
2019-04-03T17:34:49.123Z,6.13
2019-04-03T17:37:20.501Z,6.17
2019-04-03T17:39:52.319Z,6.07
2019-04-03T17:42:22.028Z,6.60
2019-04-03T17:44:52.588Z,6.17
2019-04-03T17:47:22.612Z,6.30
2019-04-03T17:49:53.665Z,7.00
2019-04-03T17:52:23.672Z,6.23
2019-04-03T17:54:53.597Z,6.37
2019-04-03T17:57:24.004Z,6.40
2019-04-03T17:59:55.711Z,5.77
2019-04-03T18:02:29.611Z,6.73
2019-04-03T18:04:59.530Z,6.37
2019-04-03T18:07:30.051Z,5.70
2019-04-03T18:10:00.592Z,6.00
2019-04-03T18:12:34.770Z,6.37
2019-04-03T18:15:04.915Z,5.80
2019-04-03T18:17:34.951Z,7.27
2019-04-03T18:20:05.575Z,5.87
2019-04-03T18:22:36.026Z,6.07
2019-04-03T18:25:12.228Z,5.87
2019-04-03T18:27:42.499Z,5.67
2019-04-03T18:30:12.861Z,6.10
2019-04-03T18:32:45.991Z,5.87
2019-04-03T18:35:15.735Z,5.80
2019-04-03T18:37:48.561Z,6.20
2019-04-03T18:40:18.555Z,6.07
2019-04-03T18:42:50.264Z,5.87
2019-04-03T18:45:25.370Z,6.07
2019-04-03T18:47:52.876Z,5.87
2019-04-03T18:50:24.604Z,6.13
2019-04-03T18:52:54.566Z,6.17
2019-04-03T18:55:25.166Z,6.40
2019-04-03T18:57:55.156Z,6.23
2019-04-03T19:00:26.880Z,5.77
2019-04-03T19:02:56.698Z,6.07
2019-04-03T19:05:26.522Z,6.37
2019-04-03T19:07:56.852Z,6.43
2019-04-03T19:10:26.563Z,5.60
2019-04-03T19:12:57.107Z,5.57
2019-04-03T19:15:27.224Z,5.80
2019-04-03T19:18:00.230Z,6.13
2019-04-03T19:20:29.228Z,5.97
2019-04-03T19:23:02.865Z,5.60
2019-04-03T19:25:32.170Z,6.10
2019-04-03T19:28:02.190Z,5.70
2019-04-03T19:30:33.171Z,5.53
2019-04-03T19:33:02.787Z,6.10
2019-04-03T19:35:32.720Z,6.07
2019-04-03T19:38:05.004Z,5.63
2019-04-03T19:40:35.316Z,6.00
2019-04-03T19:43:05.067Z,5.60
2019-04-03T19:45:34.808Z,5.53
2019-04-03T19:48:04.496Z,5.80
2019-04-03T19:50:34.250Z,5.17
2019-04-03T19:53:04.054Z,6.13
2019-04-03T19:55:34.892Z,5.30
2019-04-03T19:58:05.297Z,5.20
2019-04-03T20:00:37.076Z,5.60
2019-04-03T20:03:08.233Z,5.60
2019-04-03T20:05:38.832Z,5.70
2019-04-03T20:08:11.940Z,5.73
2019-04-03T20:10:41.701Z,4.97
2019-04-03T20:13:12.106Z,5.00
2019-04-03T20:15:42.444Z,5.37
2019-04-03T20:18:13.170Z,5.20
2019-04-03T20:20:42.928Z,5.33
2019-04-03T20:23:13.706Z,5.10
2019-04-03T20:25:44.061Z,6.10
2019-04-03T20:28:17.109Z,5.37
2019-04-03T20:30:48.143Z,5.40
2019-04-03T20:33:18.685Z,5.20
2019-04-03T20:35:49.669Z,5.33
2019-04-03T20:38:20.017Z,5.47
2019-04-03T20:40:49.587Z,5.53
2019-04-03T20:43:19.555Z,5.43
2019-04-03T20:45:49.891Z,5.07
2019-04-03T20:48:20.314Z,5.33
2019-04-03T20:50:50.877Z,5.37
2019-04-03T20:53:21.336Z,5.33
2019-04-03T20:55:51.351Z,5.40
2019-04-03T20:58:22.277Z,5.83
2019-04-03T21:01:05.710Z,4.53
2019-04-03T21:03:24.381Z,5.20
2019-04-03T21:05:55.051Z,5.37
2019-04-03T21:08:26.686Z,5.33
2019-04-03T21:10:57.006Z,4.73
2019-04-03T21:13:26.899Z,5.50
2019-04-03T21:15:56.859Z,5.13
2019-04-03T21:18:28.055Z,5.07
2019-04-03T21:21:01.390Z,5.00
2019-04-03T21:23:33.258Z,5.23
2019-04-03T21:26:02.548Z,5.13
2019-04-03T21:28:32.461Z,5.10
2019-04-03T21:31:03.720Z,5.43
2019-04-03T21:33:34.513Z,5.73
2019-04-03T21:36:06.923Z,4.80
2019-04-03T21:38:37.148Z,5.43
2019-04-03T21:41:07.049Z,5.70
2019-04-03T21:43:37.623Z,5.37
2019-04-03T21:46:08.897Z,4.93
2019-04-03T21:48:39.086Z,4.87
2019-04-03T21:51:09.552Z,5.20
2019-04-03T21:53:39.905Z,5.60
2019-04-03T21:56:10.487Z,4.80
2019-04-03T21:58:40.491Z,4.73
2019-04-03T22:01:21.866Z,5.90
2019-04-03T22:03:52.475Z,5.30
2019-04-03T22:06:27.582Z,4.90
2019-04-03T22:08:59.619Z,5.50
2019-04-03T22:11:28.258Z,4.73
2019-04-03T22:13:57.912Z,5.20
2019-04-03T22:16:27.526Z,5.00
2019-04-03T22:18:58.225Z,5.37
2019-04-03T22:21:28.229Z,4.53
2019-04-03T22:23:58.297Z,4.70
2019-04-03T22:26:29.237Z,5.10
2019-04-03T22:28:59.041Z,4.90
2019-04-03T22:31:29.013Z,5.23
2019-04-03T22:33:58.867Z,5.17
2019-04-03T22:36:29.329Z,5.43
2019-04-03T22:38:59.247Z,5.40
2019-04-03T22:41:29.453Z,5.43
2019-04-03T22:43:59.992Z,5.53
2019-04-03T22:46:29.924Z,5.10
2019-04-03T22:49:00.640Z,5.27
2019-04-03T22:51:30.922Z,4.80
2019-04-03T22:54:01.810Z,5.40
2019-04-03T22:56:31.755Z,5.27
2019-04-03T22:59:02.064Z,5.00
2019-04-03T23:01:32.825Z,5.07
2019-04-03T23:04:04.945Z,5.37
2019-04-03T23:06:40.937Z,5.60
2019-04-03T23:09:11.893Z,6.10
2019-04-03T23:11:41.775Z,5.20
2019-04-03T23:14:11.624Z,5.73
2019-04-03T23:16:42.722Z,5.50
2019-04-03T23:19:13.154Z,5.67
2019-04-03T23:21:43.153Z,4.93
2019-04-03T23:24:13.124Z,5.53
2019-04-03T23:26:43.689Z,5.13
2019-04-03T23:29:15.180Z,5.87
2019-04-03T23:31:46.412Z,6.03
2019-04-03T23:34:18.845Z,5.37
2019-04-03T23:36:48.557Z,6.13
2019-04-03T23:39:18.831Z,6.33
2019-04-03T23:41:48.700Z,5.43
2019-04-03T23:44:19.104Z,5.27
2019-04-03T23:46:48.845Z,5.97
2019-04-03T23:49:20.163Z,5.93
2019-04-03T23:51:51.256Z,5.87
2019-04-03T23:54:21.989Z,6.00
2019-04-03T23:56:52.603Z,6.20
2019-04-03T23:59:22.412Z,5.70
